sensor_id;sensor_type;location;lat;lon;timestamp;pressure;altitude;pressure_sealevel;temperature;humidity
64340;BME280;63709;53.258;-8.814;2023-05-20T00:01:23;103144.50;;;17.38;100.00
64340;BME280;63709;53.258;-8.814;2023-05-20T00:03:50;103149.28;;;17.47;100.00
64340;BME280;63709;53.258;-8.814;2023-05-20T00:06:15;103155.91;;;17.56;100.00
64340;BME280;63709;53.258;-8.814;2023-05-20T00:08:41;103162.78;;;17.47;100.00
64340;BME280;63709;53.258;-8.814;2023-05-20T00:11:07;103149.63;;;17.55;100.00
64340;BME280;63709;53.258;-8.814;2023-05-20T00:13:33;103155.44;;;17.49;100.00
64340;BME280;63709;53.258;-8.814;2023-05-20T00:16:02;103152.66;;;17.51;100.00
64340;BME280;63709;53.258;-8.814;2023-05-20T00:18:28;103153.53;;;17.51;100.00
64340;BME280;63709;53.258;-8.814;2023-05-20T00:20:53;103147.03;;;17.54;100.00
64340;BME280;63709;53.258;-8.814;2023-05-20T00:23:19;103149.84;;;17.52;100.00
64340;BME280;63709;53.258;-8.814;2023-05-20T00:25:45;103137.19;;;17.53;100.00
64340;BME280;63709;53.258;-8.814;2023-05-20T00:28:11;103142.72;;;17.51;100.00
64340;BME280;63709;53.258;-8.814;2023-05-20T00:30:41;103141.00;;;17.50;100.00
64340;BME280;63709;53.258;-8.814;2023-05-20T00:33:07;103139.81;;;17.54;100.00
64340;BME280;63709;53.258;-8.814;2023-05-20T00:35:33;103138.06;;;17.53;100.00
64340;BME280;63709;53.258;-8.814;2023-05-20T00:38:00;103146.47;;;17.49;100.00
64340;BME280;63709;53.258;-8.814;2023-05-20T00:40:27;103150.63;;;17.54;100.00
64340;BME280;63709;53.258;-8.814;2023-05-20T00:42:53;103137.50;;;17.48;100.00
64340;BME280;63709;53.258;-8.814;2023-05-20T00:45:19;103145.22;;;17.54;100.00
64340;BME280;63709;53.258;-8.814;2023-05-20T00:47:45;103146.38;;;17.50;100.00
64340;BME280;63709;53.258;-8.814;2023-05-20T00:50:10;103141.00;;;17.50;100.00
64340;BME280;63709;53.258;-8.814;2023-05-20T00:52:36;103128.28;;;17.38;100.00
64340;BME280;63709;53.258;-8.814;2023-05-20T00:55:04;103131.66;;;17.41;100.00
64340;BME280;63709;53.258;-8.814;2023-05-20T00:57:30;103139.66;;;17.43;100.00
64340;BME280;63709;53.258;-8.814;2023-05-20T00:59:56;103142.06;;;17.48;100.00
64340;BME280;63709;53.258;-8.814;2023-05-20T01:02:23;103134.63;;;17.51;100.00
64340;BME280;63709;53.258;-8.814;2023-05-20T01:04:49;103125.19;;;17.44;100.00
64340;BME280;63709;53.258;-8.814;2023-05-20T01:07:16;103132.00;;;17.50;100.00
64340;BME280;63709;53.258;-8.814;2023-05-20T01:09:43;103135.59;;;17.50;100.00
64340;BME280;63709;53.258;-8.814;2023-05-20T01:12:41;103131.13;;;17.49;100.00
64340;BME280;63709;53.258;-8.814;2023-05-20T01:15:10;103129.97;;;17.53;100.00
64340;BME280;63709;53.258;-8.814;2023-05-20T01:17:43;103099.56;;;17.37;100.00
64340;BME280;63709;53.258;-8.814;2023-05-20T01:20:13;103114.41;;;17.57;100.00
64340;BME280;63709;53.258;-8.814;2023-05-20T01:22:55;103108.16;;;17.56;100.00
64340;BME280;63709;53.258;-8.814;2023-05-20T01:25:24;103112.56;;;17.57;100.00
64340;BME280;63709;53.258;-8.814;2023-05-20T01:27:51;103102.75;;;17.56;100.00
64340;BME280;63709;53.258;-8.814;2023-05-20T01:30:17;103097.53;;;17.53;100.00
64340;BME280;63709;53.258;-8.814;2023-05-20T01:32:47;103091.28;;;17.53;100.00
64340;BME280;63709;53.258;-8.814;2023-05-20T01:35:17;103101.75;;;17.57;100.00
64340;BME280;63709;53.258;-8.814;2023-05-20T01:37:43;103081.34;;;17.53;100.00
64340;BME280;63709;53.258;-8.814;2023-05-20T01:40:14;103069.47;;;17.43;100.00
64340;BME280;63709;53.258;-8.814;2023-05-20T01:42:42;103086.00;;;17.64;100.00
64340;BME280;63709;53.258;-8.814;2023-05-20T01:45:08;103095.75;;;17.66;100.00
64340;BME280;63709;53.258;-8.814;2023-05-20T01:47:35;103088.84;;;17.62;100.00
64340;BME280;63709;53.258;-8.814;2023-05-20T01:50:02;103086.22;;;17.61;100.00
64340;BME280;63709;53.258;-8.814;2023-05-20T01:52:27;103100.16;;;17.67;100.00
64340;BME280;63709;53.258;-8.814;2023-05-20T01:54:53;103081.91;;;17.58;100.00
64340;BME280;63709;53.258;-8.814;2023-05-20T01:57:20;103101.91;;;17.69;100.00
64340;BME280;63709;53.258;-8.814;2023-05-20T01:59:52;103085.34;;;17.60;100.00
64340;BME280;63709;53.258;-8.814;2023-05-20T02:02:18;103087.44;;;17.70;100.00
64340;BME280;63709;53.258;-8.814;2023-05-20T02:04:50;103076.84;;;17.66;100.00
64340;BME280;63709;53.258;-8.814;2023-05-20T02:07:16;103073.81;;;17.71;100.00
64340;BME280;63709;53.258;-8.814;2023-05-20T02:09:45;103057.16;;;17.64;100.00
64340;BME280;63709;53.258;-8.814;2023-05-20T02:12:12;103063.88;;;17.72;100.00
64340;BME280;63709;53.258;-8.814;2023-05-20T02:14:46;103051.56;;;17.67;100.00
64340;BME280;63709;53.258;-8.814;2023-05-20T02:17:18;103029.81;;;17.56;100.00
64340;BME280;63709;53.258;-8.814;2023-05-20T02:19:44;103055.06;;;17.82;100.00
64340;BME280;63709;53.258;-8.814;2023-05-20T02:22:12;103034.06;;;17.73;100.00
64340;BME280;63709;53.258;-8.814;2023-05-20T02:24:38;103048.78;;;17.82;100.00
64340;BME280;63709;53.258;-8.814;2023-05-20T02:27:04;103035.91;;;17.73;100.00
64340;BME280;63709;53.258;-8.814;2023-05-20T02:29:31;103004.53;;;17.57;100.00
64340;BME280;63709;53.258;-8.814;2023-05-20T02:31:57;103042.91;;;17.62;100.00
64340;BME280;63709;53.258;-8.814;2023-05-20T02:34:22;103030.59;;;17.71;100.00
64340;BME280;63709;53.258;-8.814;2023-05-20T02:36:50;103026.59;;;17.64;100.00
64340;BME280;63709;53.258;-8.814;2023-05-20T02:39:16;103015.13;;;17.60;100.00
64340;BME280;63709;53.258;-8.814;2023-05-20T02:41:41;103020.75;;;17.57;100.00
64340;BME280;63709;53.258;-8.814;2023-05-20T02:44:08;103034.59;;;17.65;100.00
64340;BME280;63709;53.258;-8.814;2023-05-20T02:46:33;103040.00;;;17.65;100.00
64340;BME280;63709;53.258;-8.814;2023-05-20T02:48:59;103014.81;;;17.52;100.00
64340;BME280;63709;53.258;-8.814;2023-05-20T02:51:26;103024.75;;;17.64;100.00
64340;BME280;63709;53.258;-8.814;2023-05-20T02:53:51;103035.66;;;17.63;100.00
64340;BME280;63709;53.258;-8.814;2023-05-20T02:56:17;103023.44;;;17.57;100.00
64340;BME280;63709;53.258;-8.814;2023-05-20T02:58:47;103031.44;;;17.59;100.00
64340;BME280;63709;53.258;-8.814;2023-05-20T03:01:13;103038.16;;;17.66;100.00
64340;BME280;63709;53.258;-8.814;2023-05-20T03:03:39;103028.44;;;17.63;100.00
64340;BME280;63709;53.258;-8.814;2023-05-20T03:06:06;103035.56;;;17.64;100.00
64340;BME280;63709;53.258;-8.814;2023-05-20T03:08:32;103028.53;;;17.62;100.00
64340;BME280;63709;53.258;-8.814;2023-05-20T03:10:59;103036.44;;;17.65;100.00
64340;BME280;63709;53.258;-8.814;2023-05-20T03:13:25;103029.50;;;17.61;100.00
64340;BME280;63709;53.258;-8.814;2023-05-20T03:15:51;103030.28;;;17.63;100.00
64340;BME280;63709;53.258;-8.814;2023-05-20T03:18:17;103016.53;;;17.53;100.00
64340;BME280;63709;53.258;-8.814;2023-05-20T03:20:43;103032.09;;;17.62;100.00
64340;BME280;63709;53.258;-8.814;2023-05-20T03:23:09;103007.47;;;17.54;100.00
64340;BME280;63709;53.258;-8.814;2023-05-20T03:25:37;103023.44;;;17.57;100.00
64340;BME280;63709;53.258;-8.814;2023-05-20T03:28:03;103012.75;;;17.56;100.00
64340;BME280;63709;53.258;-8.814;2023-05-20T03:30:31;103007.47;;;17.54;100.00
64340;BME280;63709;53.258;-8.814;2023-05-20T03:32:58;103015.34;;;17.57;100.00
64340;BME280;63709;53.258;-8.814;2023-05-20T03:35:25;103008.34;;;17.55;100.00
64340;BME280;63709;53.258;-8.814;2023-05-20T03:37:50;103016.75;;;17.50;100.00
64340;BME280;63709;53.258;-8.814;2023-05-20T03:40:20;103014.16;;;17.49;100.00
64340;BME280;63709;53.258;-8.814;2023-05-20T03:42:47;103006.59;;;17.54;100.00
64340;BME280;63709;53.258;-8.814;2023-05-20T03:45:14;103009.81;;;17.46;100.00
64340;BME280;63709;53.258;-8.814;2023-05-20T03:47:40;103008.66;;;17.50;100.00
64340;BME280;63709;53.258;-8.814;2023-05-20T03:50:07;103014.28;;;17.47;100.00
64340;BME280;63709;53.258;-8.814;2023-05-20T03:52:32;102999.66;;;17.50;100.00
64340;BME280;63709;53.258;-8.814;2023-05-20T03:55:01;102981.75;;;17.36;100.00
64340;BME280;63709;53.258;-8.814;2023-05-20T03:57:28;102994.47;;;17.34;100.00
64340;BME280;63709;53.258;-8.814;2023-05-20T03:59:54;102985.63;;;17.32;100.00
64340;BME280;63709;53.258;-8.814;2023-05-20T04:02:21;103006.91;;;17.36;100.00
64340;BME280;63709;53.258;-8.814;2023-05-20T04:04:48;103004.28;;;17.35;100.00
64340;BME280;63709;53.258;-8.814;2023-05-20T04:07:17;102982.03;;;17.31;100.00
64340;BME280;63709;53.258;-8.814;2023-05-20T04:09:44;102986.91;;;17.39;100.00
64340;BME280;63709;53.258;-8.814;2023-05-20T04:12:10;102985.94;;;17.27;100.00
64340;BME280;63709;53.258;-8.814;2023-05-20T04:14:37;102990.13;;;17.31;100.00
64340;BME280;63709;53.258;-8.814;2023-05-20T04:17:06;102981.19;;;17.31;100.00
64340;BME280;63709;53.258;-8.814;2023-05-20T04:19:32;102978.69;;;17.28;100.00
64340;BME280;63709;53.258;-8.814;2023-05-20T04:21:58;102993.19;;;17.39;100.00
64340;BME280;63709;53.258;-8.814;2023-05-20T04:24:24;102981.50;;;17.39;100.00
64340;BME280;63709;53.258;-8.814;2023-05-20T04:26:52;102969.06;;;17.24;100.00
64340;BME280;63709;53.258;-8.814;2023-05-20T04:29:18;102985.41;;;17.35;100.00
64340;BME280;63709;53.258;-8.814;2023-05-20T04:31:45;102985.41;;;17.35;100.00
64340;BME280;63709;53.258;-8.814;2023-05-20T04:34:12;102989.94;;;17.34;100.00
64340;BME280;63709;53.258;-8.814;2023-05-20T04:36:38;102995.56;;;17.44;100.00
64340;BME280;63709;53.258;-8.814;2023-05-20T04:39:03;102979.47;;;17.30;100.00
64340;BME280;63709;53.258;-8.814;2023-05-20T04:41:30;102985.41;;;17.35;100.00
64340;BME280;63709;53.258;-8.814;2023-05-20T04:43:56;102963.47;;;17.27;100.00
64340;BME280;63709;53.258;-8.814;2023-05-20T04:46:24;102983.78;;;17.32;100.00
64340;BME280;63709;53.258;-8.814;2023-05-20T04:48:50;102989.41;;;17.29;100.00
64340;BME280;63709;53.258;-8.814;2023-05-20T04:51:15;102989.28;;;17.31;100.00
64340;BME280;63709;53.258;-8.814;2023-05-20T04:53:42;102995.13;;;17.37;100.00
64340;BME280;63709;53.258;-8.814;2023-05-20T04:56:10;102975.91;;;17.29;100.00
64340;BME280;63709;53.258;-8.814;2023-05-20T04:58:36;102999.25;;;17.43;100.00
64340;BME280;63709;53.258;-8.814;2023-05-20T05:01:02;102995.56;;;17.44;100.00
64340;BME280;63709;53.258;-8.814;2023-05-20T05:03:28;103005.50;;;17.44;100.00
64340;BME280;63709;53.258;-8.814;2023-05-20T05:05:57;102998.81;;;17.36;100.00
64340;BME280;63709;53.258;-8.814;2023-05-20T05:08:23;102993.63;;;17.33;100.00
64340;BME280;63709;53.258;-8.814;2023-05-20T05:10:49;102998.59;;;17.39;100.00
64340;BME280;63709;53.258;-8.814;2023-05-20T05:13:15;103013.16;;;17.37;100.00
64340;BME280;63709;53.258;-8.814;2023-05-20T05:15:40;102992.53;;;17.36;100.00
64340;BME280;63709;53.258;-8.814;2023-05-20T05:18:08;103011.44;;;17.36;100.00
64340;BME280;63709;53.258;-8.814;2023-05-20T05:20:35;102984.75;;;17.31;100.00
64340;BME280;63709;53.258;-8.814;2023-05-20T05:23:00;102994.59;;;17.32;100.00
64340;BME280;63709;53.258;-8.814;2023-05-20T05:25:25;103002.91;;;17.42;100.00
64340;BME280;63709;53.258;-8.814;2023-05-20T05:27:51;103008.22;;;17.44;100.00
64340;BME280;63709;53.258;-8.814;2023-05-20T05:30:18;102999.56;;;17.38;100.00
64340;BME280;63709;53.258;-8.814;2023-05-20T05:32:44;103003.56;;;17.33;100.00
64340;BME280;63709;53.258;-8.814;2023-05-20T05:35:09;102983.69;;;17.34;100.00
64340;BME280;63709;53.258;-8.814;2023-05-20T05:37:37;102996.75;;;17.40;100.00
64340;BME280;63709;53.258;-8.814;2023-05-20T05:40:04;103000.78;;;17.47;100.00
64340;BME280;63709;53.258;-8.814;2023-05-20T05:42:29;103001.63;;;17.48;100.00
64340;BME280;63709;53.258;-8.814;2023-05-20T05:44:55;102964.03;;;17.45;100.00
64340;BME280;63709;53.258;-8.814;2023-05-20T05:47:20;102976.34;;;17.49;100.00
64340;BME280;63709;53.258;-8.814;2023-05-20T05:49:46;102991.47;;;17.51;100.00
64340;BME280;63709;53.258;-8.814;2023-05-20T05:52:18;102982.81;;;17.46;100.00
64340;BME280;63709;53.258;-8.814;2023-05-20T05:54:43;102980.75;;;17.50;100.00
64340;BME280;63709;53.258;-8.814;2023-05-20T05:57:09;102969.31;;;17.46;100.00
64340;BME280;63709;53.258;-8.814;2023-05-20T05:59:37;102973.97;;;17.44;100.00
64340;BME280;63709;53.258;-8.814;2023-05-20T06:02:03;102985.63;;;17.57;100.00
64340;BME280;63709;53.258;-8.814;2023-05-20T06:04:28;102989.09;;;17.59;100.00
64340;BME280;63709;53.258;-8.814;2023-05-20T06:06:54;102979.38;;;17.57;100.00
64340;BME280;63709;53.258;-8.814;2023-05-20T06:09:20;102979.81;;;17.63;100.00
64340;BME280;63709;53.258;-8.814;2023-05-20T06:11:45;102971.38;;;17.68;100.00
64340;BME280;63709;53.258;-8.814;2023-05-20T06:14:11;102984.88;;;17.68;100.00
64340;BME280;63709;53.258;-8.814;2023-05-20T06:16:38;102989.41;;;17.67;100.00
64340;BME280;63709;53.258;-8.814;2023-05-20T06:19:03;102982.63;;;17.62;100.00
64340;BME280;63709;53.258;-8.814;2023-05-20T06:21:30;103008.69;;;17.76;100.00
64340;BME280;63709;53.258;-8.814;2023-05-20T06:23:57;102981.09;;;17.71;100.00
64340;BME280;63709;53.258;-8.814;2023-05-20T06:26:23;102998.44;;;17.81;100.00
64340;BME280;63709;53.258;-8.814;2023-05-20T06:28:48;102986.13;;;17.77;100.00
64340;BME280;63709;53.258;-8.814;2023-05-20T06:31:14;103000.81;;;17.85;100.00
64340;BME280;63709;53.258;-8.814;2023-05-20T06:33:41;102994.31;;;17.88;100.00
64340;BME280;63709;53.258;-8.814;2023-05-20T06:36:07;103000.13;;;17.95;100.00
64340;BME280;63709;53.258;-8.814;2023-05-20T06:38:38;102984.72;;;17.84;100.00
64340;BME280;63709;53.258;-8.814;2023-05-20T06:41:03;102992.34;;;17.90;100.00
64340;BME280;63709;53.258;-8.814;2023-05-20T06:43:29;102984.81;;;17.95;100.00
64340;BME280;63709;53.258;-8.814;2023-05-20T06:45:55;102977.66;;;17.94;100.00
64340;BME280;63709;53.258;-8.814;2023-05-20T06:48:22;102953.38;;;17.81;100.00
64340;BME280;63709;53.258;-8.814;2023-05-20T06:50:48;102941.34;;;17.85;100.00
64340;BME280;63709;53.258;-8.814;2023-05-20T06:53:14;102964.22;;;18.05;100.00
64340;BME280;63709;53.258;-8.814;2023-05-20T06:55:40;102960.16;;;18.00;100.00
64340;BME280;63709;53.258;-8.814;2023-05-20T06:58:05;102960.31;;;18.09;100.00
64340;BME280;63709;53.258;-8.814;2023-05-20T07:00:32;102950.78;;;18.17;100.00
64340;BME280;63709;53.258;-8.814;2023-05-20T07:02:57;102968.72;;;18.30;100.00
64340;BME280;63709;53.258;-8.814;2023-05-20T07:05:23;102972.47;;;18.41;100.00
64340;BME280;63709;53.258;-8.814;2023-05-20T07:07:49;102977.03;;;18.40;100.00
64340;BME280;63709;53.258;-8.814;2023-05-20T07:10:15;102980.25;;;18.45;100.00
64340;BME280;63709;53.258;-8.814;2023-05-20T07:12:40;102974.19;;;18.42;100.00
64340;BME280;63709;53.258;-8.814;2023-05-20T07:15:07;102962.66;;;18.40;100.00
64340;BME280;63709;53.258;-8.814;2023-05-20T07:17:32;102974.47;;;18.50;100.00
64340;BME280;63709;53.258;-8.814;2023-05-20T07:19:58;102977.53;;;18.45;100.00
64340;BME280;63709;53.258;-8.814;2023-05-20T07:22:24;102965.84;;;18.45;100.00
64340;BME280;63709;53.258;-8.814;2023-05-20T07:24:49;102958.25;;;18.50;100.00
64340;BME280;63709;53.258;-8.814;2023-05-20T07:27:14;102967.75;;;18.55;100.00
64340;BME280;63709;53.258;-8.814;2023-05-20T07:29:40;102960.09;;;18.49;100.00
64340;BME280;63709;53.258;-8.814;2023-05-20T07:32:07;102965.16;;;18.54;100.00
64340;BME280;63709;53.258;-8.814;2023-05-20T07:34:33;102967.31;;;18.61;100.00
64340;BME280;63709;53.258;-8.814;2023-05-20T07:36:59;102964.03;;;18.69;100.00
64340;BME280;63709;53.258;-8.814;2023-05-20T07:39:25;102937.56;;;18.61;100.00
64340;BME280;63709;53.258;-8.814;2023-05-20T07:41:53;102958.16;;;18.75;100.00
64340;BME280;63709;53.258;-8.814;2023-05-20T07:44:18;102964.63;;;18.85;100.00
64340;BME280;63709;53.258;-8.814;2023-05-20T07:46:47;102960.19;;;18.84;100.00
64340;BME280;63709;53.258;-8.814;2023-05-20T07:49:13;102955.69;;;18.96;100.00
64340;BME280;63709;53.258;-8.814;2023-05-20T07:51:40;102947.94;;;18.92;100.00
64340;BME280;63709;53.258;-8.814;2023-05-20T07:54:06;102967.06;;;19.13;100.00
64340;BME280;63709;53.258;-8.814;2023-05-20T07:56:33;102967.41;;;19.08;100.00
64340;BME280;63709;53.258;-8.814;2023-05-20T07:58:59;102970.63;;;19.13;100.00
64340;BME280;63709;53.258;-8.814;2023-05-20T08:01:26;102966.19;;;19.12;100.00
64340;BME280;63709;53.258;-8.814;2023-05-20T08:03:52;102963.63;;;19.10;100.00
64340;BME280;63709;53.258;-8.814;2023-05-20T08:06:18;102966.19;;;19.12;100.00
64340;BME280;63709;53.258;-8.814;2023-05-20T08:08:49;102952.16;;;19.07;100.00
64340;BME280;63709;53.258;-8.814;2023-05-20T08:11:15;102963.03;;;19.18;100.00
64340;BME280;63709;53.258;-8.814;2023-05-20T08:13:41;102949.09;;;19.12;100.00
64340;BME280;63709;53.258;-8.814;2023-05-20T08:16:06;102967.59;;;19.18;100.00
64340;BME280;63709;53.258;-8.814;2023-05-20T08:18:34;102957.84;;;19.15;100.00
64340;BME280;63709;53.258;-8.814;2023-05-20T08:21:02;102970.31;;;19.29;100.00
64340;BME280;63709;53.258;-8.814;2023-05-20T08:23:28;102970.81;;;19.34;100.00
64340;BME280;63709;53.258;-8.814;2023-05-20T08:25:53;102959.22;;;19.21;100.00
64340;BME280;63709;53.258;-8.814;2023-05-20T08:28:19;102970.38;;;19.16;100.00
64340;BME280;63709;53.258;-8.814;2023-05-20T08:30:46;102971.59;;;19.12;100.00
64340;BME280;63709;53.258;-8.814;2023-05-20T08:33:14;102959.47;;;18.94;100.00
64340;BME280;63709;53.258;-8.814;2023-05-20T08:35:41;102955.84;;;19.06;100.00
64340;BME280;63709;53.258;-8.814;2023-05-20T08:38:13;102973.06;;;19.05;100.00
64340;BME280;63709;53.258;-8.814;2023-05-20T08:40:40;102956.00;;;19.16;100.00
64340;BME280;63709;53.258;-8.814;2023-05-20T08:43:13;102966.00;;;19.26;100.00
64340;BME280;63709;53.258;-8.814;2023-05-20T08:45:40;102966.25;;;19.34;100.00
64340;BME280;63709;53.258;-8.814;2023-05-20T08:48:06;102967.72;;;19.27;100.00
64340;BME280;63709;53.258;-8.814;2023-05-20T08:50:32;102914.97;;;18.98;100.00
64340;BME280;63709;53.258;-8.814;2023-05-20T08:52:58;102954.28;;;19.15;100.00
64340;BME280;63709;53.258;-8.814;2023-05-20T08:55:28;102955.28;;;19.25;100.00
64340;BME280;63709;53.258;-8.814;2023-05-20T08:57:55;102948.41;;;19.32;100.00
64340;BME280;63709;53.258;-8.814;2023-05-20T09:00:22;102942.25;;;19.30;100.00
64340;BME280;63709;53.258;-8.814;2023-05-20T09:02:54;102959.97;;;19.34;100.00
64340;BME280;63709;53.258;-8.814;2023-05-20T09:05:20;102959.97;;;19.34;100.00
64340;BME280;63709;53.258;-8.814;2023-05-20T09:07:46;102957.88;;;19.26;100.00
64340;BME280;63709;53.258;-8.814;2023-05-20T09:10:12;102963.91;;;19.30;100.00
64340;BME280;63709;53.258;-8.814;2023-05-20T09:12:39;102948.41;;;19.32;100.00
64340;BME280;63709;53.258;-8.814;2023-05-20T09:15:05;102941.38;;;19.29;100.00
64340;BME280;63709;53.258;-8.814;2023-05-20T09:17:34;102949.38;;;19.31;100.00
64340;BME280;63709;53.258;-8.814;2023-05-20T09:20:11;102956.03;;;19.27;100.00
64340;BME280;63709;53.258;-8.814;2023-05-20T09:22:37;102964.66;;;19.32;100.00
64340;BME280;63709;53.258;-8.814;2023-05-20T09:25:04;102964.31;;;19.37;100.00
64340;BME280;63709;53.258;-8.814;2023-05-20T09:27:35;102930.41;;;19.20;100.00
64340;BME280;63709;53.258;-8.814;2023-05-20T09:30:00;102949.59;;;19.28;100.00
64340;BME280;63709;53.258;-8.814;2023-05-20T09:32:25;102951.38;;;19.40;100.00
64340;BME280;63709;53.258;-8.814;2023-05-20T09:34:53;102956.28;;;19.46;100.00
64340;BME280;63709;53.258;-8.814;2023-05-20T09:37:20;102960.59;;;19.38;100.00
64340;BME280;63709;53.258;-8.814;2023-05-20T09:39:55;102965.88;;;19.39;100.00
64340;BME280;63709;53.258;-8.814;2023-05-20T09:42:27;102957.88;;;19.26;100.00
64340;BME280;63709;53.258;-8.814;2023-05-20T09:44:57;102928.81;;;19.17;100.00
64340;BME280;63709;53.258;-8.814;2023-05-20T09:47:23;102956.53;;;19.32;100.00
64340;BME280;63709;53.258;-8.814;2023-05-20T09:49:51;102924.34;;;19.16;100.00
64340;BME280;63709;53.258;-8.814;2023-05-20T09:52:18;102927.69;;;19.20;100.00
64340;BME280;63709;53.258;-8.814;2023-05-20T09:54:44;102923.72;;;19.13;100.00
64340;BME280;63709;53.258;-8.814;2023-05-20T09:57:11;102921.56;;;19.29;100.00
64340;BME280;63709;53.258;-8.814;2023-05-20T09:59:39;102919.97;;;19.49;100.00
64340;BME280;63709;53.258;-8.814;2023-05-20T10:02:05;102909.38;;;19.46;100.00
64340;BME280;63709;53.258;-8.814;2023-05-20T10:04:34;102917.78;;;19.65;100.00
64340;BME280;63709;53.258;-8.814;2023-05-20T10:07:10;102936.03;;;19.74;100.00
64340;BME280;63709;53.258;-8.814;2023-05-20T10:12:40;102923.06;;;20.12;100.00
64340;BME280;63709;53.258;-8.814;2023-05-20T10:18:14;102921.91;;;20.37;100.00
64340;BME280;63709;53.258;-8.814;2023-05-20T10:20:46;102912.03;;;20.47;100.00
64340;BME280;63709;53.258;-8.814;2023-05-20T10:23:28;102918.41;;;20.57;100.00
64340;BME280;63709;53.258;-8.814;2023-05-20T10:25:57;102919.22;;;20.69;100.00
64340;BME280;63709;53.258;-8.814;2023-05-20T10:28:30;102916.66;;;20.67;100.00
64340;BME280;63709;53.258;-8.814;2023-05-20T10:30:58;102900.63;;;20.64;100.00
64340;BME280;63709;53.258;-8.814;2023-05-20T10:33:30;102898.19;;;20.82;100.00
64340;BME280;63709;53.258;-8.814;2023-05-20T10:36:05;102892.22;;;20.67;100.00
64340;BME280;63709;53.258;-8.814;2023-05-20T10:38:31;102898.19;;;20.82;100.00
64340;BME280;63709;53.258;-8.814;2023-05-20T10:41:07;102881.97;;;20.71;100.00
64340;BME280;63709;53.258;-8.814;2023-05-20T10:43:33;102892.19;;;20.99;100.00
64340;BME280;63709;53.258;-8.814;2023-05-20T10:46:00;102884.28;;;20.96;100.00
64340;BME280;63709;53.258;-8.814;2023-05-20T10:48:31;102885.47;;;20.83;100.00
64340;BME280;63709;53.258;-8.814;2023-05-20T10:51:01;102884.63;;;20.82;100.00
64340;BME280;63709;53.258;-8.814;2023-05-20T10:53:40;102892.50;;;20.85;100.00
64340;BME280;63709;53.258;-8.814;2023-05-20T10:56:17;102886.34;;;20.83;100.00
64340;BME280;63709;53.258;-8.814;2023-05-20T10:58:43;102885.81;;;20.89;100.00
64340;BME280;63709;53.258;-8.814;2023-05-20T11:01:10;102881.06;;;21.02;100.00
64340;BME280;63709;53.258;-8.814;2023-05-20T11:03:37;102877.00;;;21.18;100.00
64340;BME280;63709;53.258;-8.814;2023-05-20T11:06:13;102868.63;;;21.31;100.00
64340;BME280;63709;53.258;-8.814;2023-05-20T11:08:39;102876.19;;;21.48;100.00
64340;BME280;63709;53.258;-8.814;2023-05-20T11:11:05;102863.78;;;21.55;100.00
64340;BME280;63709;53.258;-8.814;2023-05-20T11:13:31;102866.34;;;21.57;100.00
64340;BME280;63709;53.258;-8.814;2023-05-20T11:15:57;102880.94;;;21.65;100.00
64340;BME280;63709;53.258;-8.814;2023-05-20T11:18:26;102885.25;;;21.58;100.00
64340;BME280;63709;53.258;-8.814;2023-05-20T11:21:03;102889.91;;;21.77;100.00
64340;BME280;63709;53.258;-8.814;2023-05-20T11:23:36;102885.31;;;21.78;100.00
64340;BME280;63709;53.258;-8.814;2023-05-20T11:26:08;102886.31;;;21.86;100.00
64340;BME280;63709;53.258;-8.814;2023-05-20T11:28:34;102880.47;;;21.81;100.00
64340;BME280;63709;53.258;-8.814;2023-05-20T11:31:01;102883.56;;;21.67;100.00
64340;BME280;63709;53.258;-8.814;2023-05-20T11:33:28;102859.53;;;21.72;100.00
64340;BME280;63709;53.258;-8.814;2023-05-20T11:35:55;102866.44;;;21.86;100.00
64340;BME280;63709;53.258;-8.814;2023-05-20T11:38:22;102859.69;;;21.70;100.00
64340;BME280;63709;53.258;-8.814;2023-05-20T11:40:51;102873.69;;;21.35;100.00
64340;BME280;63709;53.258;-8.814;2023-05-20T11:43:18;102862.19;;;21.53;100.00
64340;BME280;63709;53.258;-8.814;2023-05-20T11:45:46;102862.03;;;21.54;100.00
64340;BME280;63709;53.258;-8.814;2023-05-20T11:48:11;102863.28;;;21.40;100.00
64340;BME280;63709;53.258;-8.814;2023-05-20T11:50:41;102855.25;;;21.39;100.00
64340;BME280;63709;53.258;-8.814;2023-05-20T11:53:15;102849.00;;;21.48;100.00
64340;BME280;63709;53.258;-8.814;2023-05-20T11:55:56;102854.56;;;21.46;100.00
64340;BME280;63709;53.258;-8.814;2023-05-20T11:58:23;102830.66;;;21.40;100.00
64340;BME280;63709;53.258;-8.814;2023-05-20T12:00:50;102849.13;;;21.46;100.00
64340;BME280;63709;53.258;-8.814;2023-05-20T12:03:17;102843.66;;;21.37;100.00
64340;BME280;63709;53.258;-8.814;2023-05-20T12:05:45;102819.06;;;21.38;100.00
64340;BME280;63709;53.258;-8.814;2023-05-20T12:08:12;102840.59;;;21.51;100.00
64340;BME280;63709;53.258;-8.814;2023-05-20T12:10:40;102837.13;;;21.49;100.00
64340;BME280;63709;53.258;-8.814;2023-05-20T12:13:07;102809.59;;;21.33;100.00
64340;BME280;63709;53.258;-8.814;2023-05-20T12:15:38;102817.53;;;21.24;100.00
64340;BME280;63709;53.258;-8.814;2023-05-20T12:18:05;102826.69;;;21.44;100.00
64340;BME280;63709;53.258;-8.814;2023-05-20T12:20:31;102821.13;;;21.56;100.00
64340;BME280;63709;53.258;-8.814;2023-05-20T12:22:59;102815.59;;;21.67;100.00
64340;BME280;63709;53.258;-8.814;2023-05-20T12:25:26;102824.91;;;21.74;100.00
64340;BME280;63709;53.258;-8.814;2023-05-20T12:27:52;102819.19;;;21.87;100.00
64340;BME280;63709;53.258;-8.814;2023-05-20T12:30:20;102810.47;;;21.83;100.00
64340;BME280;63709;53.258;-8.814;2023-05-20T12:32:49;102815.06;;;21.92;100.00
64340;BME280;63709;53.258;-8.814;2023-05-20T12:35:25;102810.06;;;21.88;100.00
64340;BME280;63709;53.258;-8.814;2023-05-20T12:38:00;102799.03;;;21.89;100.00